Time;durP1;ratioP1;P1;durP2;ratioP2;P2;SDS_P1;SDS_P2;PMS_P1;PMS_P2;Temp;Humidity;BMP_temperature;BMP_pressure;BME280_temperature;BME280_humidity;BME280_pressure;Samples;Min_cycle;Max_cycle;Signal;HPM_P1;HPM_P2
2022/11/24 00:02:03;;;;;;;;;;;;;;;9.92;nan;100902.00;5076781;28;19924;-33
2022/11/24 00:04:28;;;;;;;;;;;;;;;9.90;nan;100906.78;5079719;28;19961;-33
2022/11/24 00:06:54;;;;;;;;;;;;;;;9.90;nan;100906.78;5079753;28;20139;-33
2022/11/24 00:09:19;;;;;;;;;;;;;;;9.92;nan;100906.53;5073851;28;20031;-33
2022/11/24 00:11:45;;;;;;;;;;;;;;;9.94;nan;100901.75;5077021;28;19923;-33
2022/11/24 00:14:10;;;;;;;;;;;;;;;9.90;nan;100906.78;5077698;28;19920;-33
2022/11/24 00:16:36;;;;;;;;;;;;;;;9.90;nan;100906.78;5078942;28;19920;-33
2022/11/24 00:19:03;;;;;;;;;;;;;;;9.86;nan;100902.94;5080978;28;19953;-33
2022/11/24 00:21:30;;;;;;;;;;;;;;;9.87;nan;100911.75;5075089;28;19935;-33
2022/11/24 00:23:55;;;;;;;;;;;;;;;9.88;nan;100908.88;5080353;28;19920;-33
2022/11/24 00:26:22;;;;;;;;;;;;;;;9.90;nan;100906.78;5074978;28;19917;-33
2022/11/24 00:28:48;;;;;;;;;;;;;;;9.90;nan;100906.78;5080331;28;20302;-33
2022/11/24 00:31:21;;;;;;;;;;;;;;;9.88;nan;100900.84;5074797;28;20030;-33
2022/11/24 00:33:47;;;;;;;;;;;;;;;9.88;nan;100902.72;5078954;28;20015;-33
2022/11/24 00:36:13;;;;;;;;;;;;;;;9.86;nan;100902.94;5078547;28;19924;-33
2022/11/24 00:38:39;;;;;;;;;;;;;;;9.88;nan;100903.53;5080891;28;20078;-33
2022/11/24 00:41:05;;;;;;;;;;;;;;;9.92;nan;100906.53;5075935;28;20039;-33
2022/11/24 00:43:30;;;;;;;;;;;;;;;9.93;nan;100913.50;5077076;28;19999;-33
2022/11/24 00:45:56;;;;;;;;;;;;;;;9.91;nan;100908.41;5074011;28;19981;-33
2022/11/24 00:48:21;;;;;;;;;;;;;;;9.88;nan;100906.19;5077636;28;20020;-33
2022/11/24 00:51:00;;;;;;;;;;;;;;;9.88;nan;100897.38;5079779;28;19924;-33
2022/11/24 00:53:26;;;;;;;;;;;;;;;9.84;nan;100897.00;5078662;28;19950;-33
2022/11/24 00:55:52;;;;;;;;;;;;;;;9.86;nan;100888.72;5072003;28;20395;-33
2022/11/24 00:58:17;;;;;;;;;;;;;;;9.86;nan;100889.53;5079050;28;19956;-33
2022/11/24 01:00:43;;;;;;;;;;;;;;;9.87;nan;100890.34;5081526;28;20456;-33
2022/11/24 01:03:08;;;;;;;;;;;;;;;9.84;nan;100886.31;5076794;28;19935;-33
2022/11/24 01:05:37;;;;;;;;;;;;;;;9.83;nan;100892.69;5074653;28;19916;-33
2022/11/24 01:08:02;;;;;;;;;;;;;;;9.81;nan;100894.81;5074197;28;19926;-33
2022/11/24 01:10:28;;;;;;;;;;;;;;;9.76;nan;100891.22;5076564;28;19924;-33
2022/11/24 01:12:53;;;;;;;;;;;;;;;9.73;nan;100887.19;5081698;28;19916;-33
2022/11/24 01:15:19;;;;;;;;;;;;;;;9.74;nan;100880.78;5072946;28;19920;-33
2022/11/24 01:17:44;;;;;;;;;;;;;;;9.76;nan;100886.69;5072831;28;19920;-33
2022/11/24 01:20:09;;;;;;;;;;;;;;;9.78;nan;100887.28;5072118;28;19924;-33
2022/11/24 01:22:37;;;;;;;;;;;;;;;9.77;nan;100891.00;5074020;28;19970;-33
2022/11/24 01:25:02;;;;;;;;;;;;;;;9.78;nan;100889.94;5078652;28;19985;-33
2022/11/24 01:27:28;;;;;;;;;;;;;;;9.73;nan;100889.84;5072449;28;20395;-33
2022/11/24 01:29:53;;;;;;;;;;;;;;;9.72;nan;100893.59;5075355;28;19916;-33
2022/11/24 01:32:18;;;;;;;;;;;;;;;9.72;nan;100893.59;5072233;28;19977;-33
2022/11/24 01:34:44;;;;;;;;;;;;;;;9.75;nan;100892.28;5078167;28;19977;-33
2022/11/24 01:37:09;;;;;;;;;;;;;;;9.79;nan;100896.09;5078833;28;19916;-33
2022/11/24 01:39:34;;;;;;;;;;;;;;;9.77;nan;100893.66;5077530;28;19920;-33
2022/11/24 01:42:00;;;;;;;;;;;;;;;9.75;nan;100903.00;5074524;28;20404;-33
2022/11/24 01:44:27;;;;;;;;;;;;;;;9.75;nan;100906.47;5073376;28;19993;-33
2022/11/24 01:46:57;;;;;;;;;;;;;;;9.73;nan;100900.56;5076168;28;19932;-33
2022/11/24 01:49:26;;;;;;;;;;;;;;;9.75;nan;100911.03;5077725;28;19920;-33
2022/11/24 01:52:00;;;;;;;;;;;;;;;9.75;nan;100911.03;5079434;28;19923;-33
2022/11/24 01:54:31;;;;;;;;;;;;;;;9.73;nan;100913.94;5075596;28;19924;-33
2022/11/24 01:56:59;;;;;;;;;;;;;;;9.74;nan;100918.22;5077968;28;20028;-33
2022/11/24 01:59:25;;;;;;;;;;;;;;;9.77;nan;100915.06;5078847;28;19930;-33
2022/11/24 02:01:51;;;;;;;;;;;;;;;9.76;nan;100915.31;5078097;28;19970;-33
2022/11/24 02:04:18;;;;;;;;;;;;;;;9.75;nan;100913.69;5076233;28;19950;-33
2022/11/24 02:06:45;;;;;;;;;;;;;;;9.75;nan;100903.81;5076727;28;19931;-33
2022/11/24 02:09:15;;;;;;;;;;;;;;;9.76;nan;100918.00;5078110;28;19998;-33
2022/11/24 02:11:42;;;;;;;;;;;;;;;9.77;nan;100923.09;5076612;28;19923;-33
2022/11/24 02:14:10;;;;;;;;;;;;;;;9.75;nan;100914.50;5079372;28;19927;-33
2022/11/24 02:16:36;;;;;;;;;;;;;;;9.74;nan;100917.44;5079385;28;19920;-33
2022/11/24 02:19:05;;;;;;;;;;;;;;;9.69;nan;100920.78;5075109;28;20336;-33
2022/11/24 02:21:30;;;;;;;;;;;;;;;9.70;nan;100917.09;5073856;28;20294;-33
2022/11/24 02:24:02;;;;;;;;;;;;;;;9.70;nan;100922.44;5075311;28;19924;-33
2022/11/24 02:26:47;;;;;;;;;;;;;;;9.71;nan;100921.38;5071862;28;19960;-33
2022/11/24 02:29:13;;;;;;;;;;;;;;;9.75;nan;100924.41;5075301;28;20210;-33
2022/11/24 02:31:40;;;;;;;;;;;;;;;9.77;nan;100927.66;5076186;28;20417;-33
2022/11/24 02:34:05;;;;;;;;;;;;;;;9.79;nan;100928.22;5072790;28;19924;-33
2022/11/24 02:36:31;;;;;;;;;;;;;;;9.79;nan;100921.00;5074264;28;20009;-33
2022/11/24 02:38:56;;;;;;;;;;;;;;;9.80;nan;100927.97;5077397;28;19916;-33
2022/11/24 02:41:24;;;;;;;;;;;;;;;9.82;nan;100922.38;5075672;28;20074;-33
2022/11/24 02:44:00;;;;;;;;;;;;;;;9.81;nan;100924.25;5072832;28;19916;-33
2022/11/24 02:46:25;;;;;;;;;;;;;;;9.79;nan;100934.38;5075941;28;19935;-33
2022/11/24 02:48:51;;;;;;;;;;;;;;;9.83;nan;100929.34;5075634;28;19920;-33
2022/11/24 02:51:16;;;;;;;;;;;;;;;9.83;nan;100932.84;5078948;28;19920;-33
2022/11/24 02:53:42;;;;;;;;;;;;;;;9.79;nan;100934.38;5079088;28;20367;-33
2022/11/24 02:56:07;;;;;;;;;;;;;;;9.76;nan;100936.72;5083594;28;20429;-33
2022/11/24 02:58:32;;;;;;;;;;;;;;;9.77;nan;100930.31;5076547;28;20388;-33
2022/11/24 03:00:58;;;;;;;;;;;;;;;9.79;nan;100933.56;5075886;28;19924;-33
2022/11/24 03:03:24;;;;;;;;;;;;;;;9.79;nan;100931.69;5079826;28;20409;-33
2022/11/24 03:05:49;;;;;;;;;;;;;;;9.76;nan;100921.47;5073301;28;20067;-33
2022/11/24 03:08:15;;;;;;;;;;;;;;;9.77;nan;100922.28;5078370;28;19924;-33
2022/11/24 03:10:40;;;;;;;;;;;;;;;9.74;nan;100928.94;5076800;28;20330;-33
2022/11/24 03:13:05;;;;;;;;;;;;;;;9.69;nan;100921.63;5079284;28;19924;-32
2022/11/24 03:15:31;;;;;;;;;;;;;;;9.67;nan;100929.06;5060135;28;19920;-33
2022/11/24 03:17:56;;;;;;;;;;;;;;;9.66;nan;100932.78;5074622;28;19923;-33
2022/11/24 03:20:22;;;;;;;;;;;;;;;9.65;nan;100922.31;5076384;28;19923;-33
2022/11/24 03:22:47;;;;;;;;;;;;;;;9.60;nan;100928.38;5074650;28;19924;-33
2022/11/24 03:25:13;;;;;;;;;;;;;;;9.62;nan;100925.47;5078492;28;19951;-33
2022/11/24 03:27:38;;;;;;;;;;;;;;;9.63;nan;100929.78;5074791;28;19978;-33
2022/11/24 03:30:04;;;;;;;;;;;;;;;9.64;nan;100931.41;5075137;28;19916;-33
2022/11/24 03:32:29;;;;;;;;;;;;;;;9.61;nan;100934.56;5076078;28;19931;-33
2022/11/24 03:34:55;;;;;;;;;;;;;;;9.55;nan;100930.97;5078904;28;19920;-33
2022/11/24 03:37:21;;;;;;;;;;;;;;;9.56;nan;100934.47;5081019;28;19916;-33
2022/11/24 03:39:47;;;;;;;;;;;;;;;9.56;nan;100934.47;5080929;28;20271;-33
2022/11/24 03:42:12;;;;;;;;;;;;;;;9.58;nan;100929.69;5075766;28;19924;-33
2022/11/24 03:44:37;;;;;;;;;;;;;;;9.59;nan;100925.97;5077424;28;19927;-33
2022/11/24 03:47:03;;;;;;;;;;;;;;;9.61;nan;100918.50;5075281;28;19916;-32
2022/11/24 03:49:28;;;;;;;;;;;;;;;9.64;nan;100929.53;5076037;28;19935;-32
2022/11/24 03:51:53;;;;;;;;;;;;;;;9.68;nan;100943.25;5074468;28;19924;-32
2022/11/24 03:54:19;;;;;;;;;;;;;;;9.61;nan;100943.38;5074786;28;19927;-32
2022/11/24 03:56:44;;;;;;;;;;;;;;;9.56;nan;100943.28;5075019;28;20271;-32
2022/11/24 03:59:09;;;;;;;;;;;;;;;9.59;nan;100942.00;5075660;28;19953;-32
2022/11/24 04:01:35;;;;;;;;;;;;;;;9.58;nan;100953.75;5072323;28;20307;-32
2022/11/24 04:04:00;;;;;;;;;;;;;;;9.57;nan;100952.13;5074633;28;19917;-33
2022/11/24 04:06:25;;;;;;;;;;;;;;;9.57;nan;100952.13;5073566;28;19932;-32
2022/11/24 04:08:51;;;;;;;;;;;;;;;9.59;nan;100950.03;5075609;28;19924;-32
2022/11/24 04:14:00;;;;;;;;;;;;;;;9.56;nan;100961.22;5072500;28;19926;-32
2022/11/24 04:16:25;;;;;;;;;;;;;;;9.58;nan;100962.59;5074678;28;20030;-32
2022/11/24 04:18:52;;;;;;;;;;;;;;;9.62;nan;100973.63;5076925;28;19925;-33
2022/11/24 04:21:17;;;;;;;;;;;;;;;9.62;nan;100971.75;5080653;28;19924;-33
2022/11/24 04:23:42;;;;;;;;;;;;;;;9.57;nan;100970.84;5072966;28;20257;-32
2022/11/24 04:26:08;;;;;;;;;;;;;;;9.55;nan;100968.41;5076495;28;19971;-32
2022/11/24 04:28:33;;;;;;;;;;;;;;;9.48;nan;100975.75;5077528;28;20018;-32
2022/11/24 04:31:01;;;;;;;;;;;;;;;9.47;nan;100967.97;5078711;28;19963;-32
2022/11/24 04:33:27;;;;;;;;;;;;;;;9.43;nan;100969.47;5079320;28;20542;-32
2022/11/24 04:35:52;;;;;;;;;;;;;;;9.45;nan;100972.72;5074432;28;20019;-32
2022/11/24 04:38:18;;;;;;;;;;;;;;;9.43;nan;100972.97;5073325;28;20010;-32
2022/11/24 04:40:43;;;;;;;;;;;;;;;9.44;nan;100971.91;5077232;28;20150;-32
2022/11/24 04:43:09;;;;;;;;;;;;;;;9.42;nan;100981.22;5078871;28;20382;-32
2022/11/24 04:45:34;;;;;;;;;;;;;;;9.42;nan;100984.72;5075117;28;19916;-32
2022/11/24 04:48:00;;;;;;;;;;;;;;;9.44;nan;101001.34;5074705;28;19983;-32
2022/11/24 04:50:25;;;;;;;;;;;;;;;9.44;nan;101001.34;5075583;28;19924;-32
2022/11/24 04:52:51;;;;;;;;;;;;;;;9.45;nan;100999.47;5080386;28;20324;-32
2022/11/24 04:55:17;;;;;;;;;;;;;;;9.41;nan;100990.28;5075288;28;19916;-32
2022/11/24 04:57:42;;;;;;;;;;;;;;;9.39;nan;100994.03;5073675;28;19920;-32
2022/11/24 05:00:08;;;;;;;;;;;;;;;9.42;nan;100982.03;5074642;28;19935;-32
2022/11/24 05:02:34;;;;;;;;;;;;;;;9.47;nan;100984.00;5073520;28;19931;-32
2022/11/24 05:04:59;;;;;;;;;;;;;;;9.47;nan;100989.34;5078688;28;19916;-32
2022/11/24 05:07:24;;;;;;;;;;;;;;;9.46;nan;100990.41;5079412;28;20130;-32
2022/11/24 05:12:34;;;;;;;;;;;;;;;9.44;nan;101006.69;5081104;28;19923;-32
2022/11/24 05:15:00;;;;;;;;;;;;;;;9.43;nan;101007.72;5080329;28;19916;-32
2022/11/24 05:17:32;;;;;;;;;;;;;;;9.43;nan;101013.09;5073930;28;19950;-32
2022/11/24 05:19:58;;;;;;;;;;;;;;;9.42;nan;101016.00;5074348;28;19916;-32
2022/11/24 05:22:23;;;;;;;;;;;;;;;9.41;nan;101014.38;5073111;28;19923;-32
2022/11/24 05:24:49;;;;;;;;;;;;;;;9.43;nan;101022.97;5073401;28;19924;-32
2022/11/24 05:27:14;;;;;;;;;;;;;;;9.41;nan;101015.19;5075539;28;19926;-32
2022/11/24 05:29:39;;;;;;;;;;;;;;;9.43;nan;101015.75;5077278;28;20319;-32
2022/11/24 05:32:05;;;;;;;;;;;;;;;9.44;nan;101021.91;5078798;28;21582;-32
2022/11/24 05:34:32;;;;;;;;;;;;;;;9.49;nan;101027.38;5071696;28;20011;-32
2022/11/24 05:37:01;;;;;;;;;;;;;;;9.46;nan;101027.84;5077027;28;20256;-32
2022/11/24 05:39:27;;;;;;;;;;;;;;;9.43;nan;101031.00;5076309;28;20028;-32
2022/11/24 05:41:52;;;;;;;;;;;;;;;9.39;nan;101038.66;5077059;28;20417;-32
2022/11/24 05:44:18;;;;;;;;;;;;;;;9.37;nan;101046.94;5070946;28;19919;-32
2022/11/24 05:46:43;;;;;;;;;;;;;;;9.36;nan;101066.69;5070994;28;19922;-32
2022/11/24 05:49:08;;;;;;;;;;;;;;;9.28;nan;101058.19;5072023;28;19924;-33
2022/11/24 05:51:34;;;;;;;;;;;;;;;9.16;nan;101050.19;5078937;28;19923;-32
2022/11/24 05:53:59;;;;;;;;;;;;;;;9.12;nan;101046.31;5078004;28;19927;-32
2022/11/24 05:56:24;;;;;;;;;;;;;;;9.13;nan;101047.94;5074728;28;19917;-32
2022/11/24 05:58:50;;;;;;;;;;;;;;;9.14;nan;101046.91;5071055;28;20299;-32
2022/11/24 06:01:15;;;;;;;;;;;;;;;9.15;nan;101045.03;5078325;28;20517;-32
2022/11/24 06:03:40;;;;;;;;;;;;;;;9.15;nan;101059.22;5071680;28;20436;-32
2022/11/24 06:06:06;;;;;;;;;;;;;;;9.14;nan;101054.91;5070865;28;20427;-32
2022/11/24 06:08:32;;;;;;;;;;;;;;;9.14;nan;101048.75;5071264;28;20069;-32
2022/11/24 06:11:16;;;;;;;;;;;;;;;9.19;nan;101051.56;5058245;28;19920;-32
2022/11/24 06:13:43;;;;;;;;;;;;;;;9.24;nan;101046.34;5072031;28;20305;-32
2022/11/24 06:16:08;;;;;;;;;;;;;;;9.29;nan;101043.78;5072910;28;20066;-32
2022/11/24 06:18:33;;;;;;;;;;;;;;;9.31;nan;101053.19;5071459;28;20007;-32
2022/11/24 06:21:01;;;;;;;;;;;;;;;9.34;nan;101057.28;5076707;28;19965;-32
2022/11/24 06:23:27;;;;;;;;;;;;;;;9.32;nan;101076.19;5074486;28;19931;-32
2022/11/24 06:25:52;;;;;;;;;;;;;;;9.29;nan;101071.31;5076685;28;19917;-32
2022/11/24 06:28:17;;;;;;;;;;;;;;;9.31;nan;101079.94;5075716;28;19931;-33
2022/11/24 06:30:42;;;;;;;;;;;;;;;9.32;nan;101078.06;5076423;28;19923;-32
2022/11/24 06:33:08;;;;;;;;;;;;;;;9.33;nan;101069.00;5075461;28;19924;-32
2022/11/24 06:35:33;;;;;;;;;;;;;;;9.35;nan;101083.78;5077883;28;19932;-32
2022/11/24 06:37:58;;;;;;;;;;;;;;;9.35;nan;101070.41;5077058;28;19927;-32
2022/11/24 06:40:24;;;;;;;;;;;;;;;9.34;nan;101074.13;5076362;28;19916;-33
2022/11/24 06:42:50;;;;;;;;;;;;;;;9.35;nan;101069.59;5077143;28;19916;-33
2022/11/24 06:45:15;;;;;;;;;;;;;;;9.36;nan;101071.22;5076820;28;19979;-33
2022/11/24 06:47:41;;;;;;;;;;;;;;;9.36;nan;101084.59;5073858;28;19928;-32
2022/11/24 06:50:06;;;;;;;;;;;;;;;9.36;nan;101093.44;5075605;28;20007;-32
2022/11/24 06:52:32;;;;;;;;;;;;;;;9.32;nan;101083.41;5075683;28;19916;-32
2022/11/24 06:54:57;;;;;;;;;;;;;;;9.31;nan;101079.13;5075650;28;19924;-32
2022/11/24 06:57:22;;;;;;;;;;;;;;;9.29;nan;101084.69;5073663;28;20007;-32
2022/11/24 06:59:48;;;;;;;;;;;;;;;9.30;nan;101088.19;5073754;28;19923;-32
2022/11/24 07:02:13;;;;;;;;;;;;;;;9.34;nan;101094.72;5076658;28;19931;-33
2022/11/24 07:04:38;;;;;;;;;;;;;;;9.39;nan;101092.97;5075281;28;19943;-32
2022/11/24 07:07:04;;;;;;;;;;;;;;;9.42;nan;101094.38;5075516;28;19999;-32
2022/11/24 07:09:29;;;;;;;;;;;;;;;9.42;nan;101094.38;5080816;28;20349;-32
2022/11/24 07:11:55;;;;;;;;;;;;;;;9.38;nan;101086.00;5075631;28;19990;-32
2022/11/24 07:14:20;;;;;;;;;;;;;;;9.38;nan;101094.00;5076211;28;19923;-32
2022/11/24 07:16:46;;;;;;;;;;;;;;;9.37;nan;101104.94;5074793;28;19939;-32
2022/11/24 07:19:11;;;;;;;;;;;;;;;9.35;nan;101118.56;5075535;28;20431;-32
2022/11/24 07:21:36;;;;;;;;;;;;;;;9.28;nan;101125.03;5081196;28;19943;-32
2022/11/24 07:24:02;;;;;;;;;;;;;;;9.20;nan;101120.84;5077288;28;19916;-32
2022/11/24 07:26:28;;;;;;;;;;;;;;;9.21;nan;101121.66;5076048;28;19927;-32
2022/11/24 07:28:53;;;;;;;;;;;;;;;9.24;nan;101131.91;5076093;28;20298;-32
2022/11/24 07:31:20;;;;;;;;;;;;;;;9.23;nan;101136.44;5084870;28;19977;-32
2022/11/24 07:33:49;;;;;;;;;;;;;;;9.23;nan;101130.25;5074007;28;19923;-32
2022/11/24 07:36:14;;;;;;;;;;;;;;;9.30;nan;101136.31;5075442;28;20395;-32
2022/11/24 07:38:39;;;;;;;;;;;;;;;9.27;nan;101139.44;5072696;28;19970;-32
2022/11/24 07:41:06;;;;;;;;;;;;;;;9.29;nan;101146.19;5079521;28;20288;-32
2022/11/24 07:43:34;;;;;;;;;;;;;;;9.33;nan;101147.34;5075130;28;19923;-32
2022/11/24 07:45:59;;;;;;;;;;;;;;;9.32;nan;101145.72;5079822;28;19920;-32
2022/11/24 07:48:25;;;;;;;;;;;;;;;9.29;nan;101140.84;5074250;28;20379;-32
2022/11/24 07:50:50;;;;;;;;;;;;;;;9.27;nan;101145.63;5077992;28;20409;-32
2022/11/24 07:53:15;;;;;;;;;;;;;;;9.20;nan;101147.59;5074442;28;20224;-32
2022/11/24 07:55:41;;;;;;;;;;;;;;;9.16;nan;101146.41;5074143;28;19916;-32
2022/11/24 07:58:06;;;;;;;;;;;;;;;9.20;nan;101142.25;5073536;28;19927;-32
2022/11/24 08:00:32;;;;;;;;;;;;;;;9.23;nan;101144.44;5073135;28;19923;-32
2022/11/24 08:02:57;;;;;;;;;;;;;;;9.25;nan;101146.88;5074319;28;19931;-32
2022/11/24 08:05:22;;;;;;;;;;;;;;;9.28;nan;101152.59;5075791;28;20007;-32
2022/11/24 08:07:48;;;;;;;;;;;;;;;9.22;nan;101150.84;5073857;28;19927;-32
2022/11/24 08:10:13;;;;;;;;;;;;;;;9.23;nan;101162.34;5081986;28;19938;-34
2022/11/24 08:12:38;;;;;;;;;;;;;;;9.21;nan;101159.91;5073799;28;19927;-34
2022/11/24 08:15:04;;;;;;;;;;;;;;;9.24;nan;101161.31;5074126;28;19929;-34
2022/11/24 08:17:29;;;;;;;;;;;;;;;9.24;nan;101164.78;5078016;28;19919;-34
2022/11/24 08:19:55;;;;;;;;;;;;;;;9.26;nan;101162.69;5074700;28;19924;-35
2022/11/24 08:22:20;;;;;;;;;;;;;;;9.25;nan;101171.75;5074206;28;20310;-34
2022/11/24 08:24:47;;;;;;;;;;;;;;;9.26;nan;101162.69;5073572;28;19923;-35
2022/11/24 08:27:13;;;;;;;;;;;;;;;9.26;nan;101170.72;5074000;28;19939;-35
2022/11/24 08:29:39;;;;;;;;;;;;;;;9.31;nan;101170.84;5072400;28;19928;-35
2022/11/24 08:32:04;;;;;;;;;;;;;;;9.35;nan;101188.09;5073616;28;19920;-34
2022/11/24 08:34:29;;;;;;;;;;;;;;;9.36;nan;101179.00;5074484;28;19928;-34
2022/11/24 08:36:55;;;;;;;;;;;;;;;9.37;nan;101180.63;5077612;28;19920;-34
2022/11/24 08:39:23;;;;;;;;;;;;;;;9.34;nan;101183.78;5074787;28;19924;-34
2022/11/24 08:41:48;;;;;;;;;;;;;;;9.35;nan;101171.22;5075676;28;20104;-35
2022/11/24 08:44:16;;;;;;;;;;;;;;;9.36;nan;101171.00;5074404;28;19916;-35
2022/11/24 08:46:41;;;;;;;;;;;;;;;9.37;nan;101174.47;5073910;28;19989;-35
2022/11/24 08:49:07;;;;;;;;;;;;;;;9.36;nan;101176.34;5079317;28;20422;-36
2022/11/24 08:51:33;;;;;;;;;;;;;;;9.40;nan;101179.38;5078595;28;19962;-34
2022/11/24 08:53:59;;;;;;;;;;;;;;;9.42;nan;101192.50;5073421;28;19946;-36
2022/11/24 08:56:26;;;;;;;;;;;;;;;9.43;nan;101181.56;5077863;28;19923;-35
2022/11/24 08:58:51;;;;;;;;;;;;;;;9.47;nan;101181.94;5072898;28;20443;-35
2022/11/24 09:01:17;;;;;;;;;;;;;;;9.50;nan;101184.13;5073613;28;20061;-35
2022/11/24 09:03:43;;;;;;;;;;;;;;;9.52;nan;101182.88;5076565;28;20010;-34
2022/11/24 09:06:09;;;;;;;;;;;;;;;9.53;nan;101186.38;5072943;28;20869;-35
2022/11/24 09:08:35;;;;;;;;;;;;;;;9.56;nan;101191.25;5074777;28;19928;-35
2022/11/24 09:11:01;;;;;;;;;;;;;;;9.56;nan;101196.59;5070588;28;19923;-34
2022/11/24 09:13:27;;;;;;;;;;;;;;;9.57;nan;101192.88;5076339;28;19920;-34
2022/11/24 09:15:52;;;;;;;;;;;;;;;9.54;nan;101188.81;5073156;28;19916;-35
2022/11/24 09:18:17;;;;;;;;;;;;;;;9.48;nan;101188.91;5074601;28;19924;-34
2022/11/24 09:20:42;;;;;;;;;;;;;;;9.41;nan;101189.00;5076720;28;19916;-35
2022/11/24 09:23:08;;;;;;;;;;;;;;;9.47;nan;101184.59;5074071;28;19924;-35
2022/11/24 09:25:33;;;;;;;;;;;;;;;9.53;nan;101187.19;5078822;28;19982;-34
2022/11/24 09:27:58;;;;;;;;;;;;;;;9.56;nan;101177.88;5073528;28;19929;-35
2022/11/24 09:30:24;;;;;;;;;;;;;;;9.53;nan;101189.03;5073301;28;19916;-34
2022/11/24 09:32:50;;;;;;;;;;;;;;;9.44;nan;101187.75;5072156;28;20696;-34
2022/11/24 09:35:15;;;;;;;;;;;;;;;9.47;nan;101188.09;5073120;28;20042;-36
2022/11/24 09:37:43;;;;;;;;;;;;;;;9.50;nan;101195.66;5076506;28;19916;-34
2022/11/24 09:40:11;;;;;;;;;;;;;;;9.52;nan;101190.91;5071168;28;19939;-35
2022/11/24 09:42:36;;;;;;;;;;;;;;;9.55;nan;101197.66;5075758;28;19927;-34
2022/11/24 09:45:01;;;;;;;;;;;;;;;9.56;nan;101201.97;5074089;28;19924;-35
2022/11/24 09:47:35;;;;;;;;;;;;;;;9.53;nan;101202.44;5073294;28;19991;-35
2022/11/24 09:50:02;;;;;;;;;;;;;;;9.52;nan;101203.47;5071935;28;20398;-34
2022/11/24 09:52:46;;;;;;;;;;;;;;;9.52;nan;101200.78;5072418;28;19924;-35
2022/11/24 09:55:23;;;;;;;;;;;;;;;9.56;nan;101199.28;5073183;28;19970;-35
2022/11/24 09:57:53;;;;;;;;;;;;;;;9.57;nan;101201.72;5074981;28;20121;-35
2022/11/24 10:00:18;;;;;;;;;;;;;;;9.63;nan;101199.97;5072657;28;19920;-34
2022/11/24 10:02:46;;;;;;;;;;;;;;;9.69;nan;101207.91;5075716;28;20444;-34
2022/11/24 10:05:12;;;;;;;;;;;;;;;9.72;nan;101200.47;5073323;28;19916;-35
2022/11/24 10:07:43;;;;;;;;;;;;;;;9.74;nan;101207.22;5069191;28;19917;-34
2022/11/24 10:10:20;;;;;;;;;;;;;;;9.78;nan;101211.06;5071170;28;19916;-35
2022/11/24 10:13:16;;;;;;;;;;;;;;;9.82;nan;101214.91;5073661;28;19924;-34
2022/11/24 10:16:05;;;;;;;;;;;;;;;9.85;nan;101213.63;5075436;28;19917;-34
2022/11/24 10:18:42;;;;;;;;;;;;;;;9.86;nan;101210.69;5030790;28;20261;-34
2022/11/24 10:21:26;;;;;;;;;;;;;;;9.86;nan;101210.69;5071460;28;20340;-36
2022/11/24 10:23:51;;;;;;;;;;;;;;;9.85;nan;101203.72;5078942;28;19921;-34
2022/11/24 10:26:18;;;;;;;;;;;;;;;9.89;nan;101202.22;5073871;28;20388;-35
2022/11/24 10:28:47;;;;;;;;;;;;;;;9.94;nan;101205.00;5069181;28;20391;-35
2022/11/24 10:31:31;;;;;;;;;;;;;;;9.98;nan;101213.41;5072264;28;19924;-34
2022/11/24 10:33:59;;;;;;;;;;;;;;;9.96;nan;101224.34;5069846;28;19916;-35
2022/11/24 10:36:34;;;;;;;;;;;;;;;9.97;nan;101228.63;5075982;28;19920;-34
2022/11/24 10:39:12;;;;;;;;;;;;;;;9.90;nan;101227.94;5073102;28;19923;-34
2022/11/24 10:41:59;;;;;;;;;;;;;;;9.86;nan;101221.41;5079556;28;19916;-35
2022/11/24 10:44:24;;;;;;;;;;;;;;;9.82;nan;101224.78;5070199;28;19983;-34
2022/11/24 10:46:50;;;;;;;;;;;;;;;9.82;nan;101224.78;5075935;28;19923;-34
2022/11/24 10:49:22;;;;;;;;;;;;;;;9.85;nan;101219.78;5071115;28;19924;-35
2022/11/24 10:52:04;;;;;;;;;;;;;;;9.91;nan;101224.22;5073113;28;20019;-35
2022/11/24 10:54:30;;;;;;;;;;;;;;;9.89;nan;101231.66;5081806;28;19920;-36
2022/11/24 10:56:55;;;;;;;;;;;;;;;9.90;nan;101233.31;5072872;28;20042;-34
2022/11/24 10:59:21;;;;;;;;;;;;;;;9.96;nan;101224.34;5070748;28;19924;-35
2022/11/24 11:01:46;;;;;;;;;;;;;;;10.02;nan;101235.16;5076439;28;19923;-36
2022/11/24 11:04:25;;;;;;;;;;;;;;;10.04;nan;101228.50;5074541;28;20400;-35
2022/11/24 11:06:50;;;;;;;;;;;;;;;10.08;nan;101235.06;5073651;28;20006;-34
2022/11/24 11:09:18;;;;;;;;;;;;;;;10.10;nan;101222.25;5074501;28;20417;-34
2022/11/24 11:11:45;;;;;;;;;;;;;;;10.14;nan;101222.59;5075541;28;19920;-34
2022/11/24 11:14:11;;;;;;;;;;;;;;;10.14;nan;101218.06;5073728;28;19924;-35
2022/11/24 11:16:49;;;;;;;;;;;;;;;10.16;nan;101218.63;5074108;28;19917;-35
2022/11/24 11:19:33;;;;;;;;;;;;;;;10.21;nan;101229.47;5074008;28;19975;-35
2022/11/24 11:22:10;;;;;;;;;;;;;;;10.15;nan;101218.88;5076613;28;19916;-35
2022/11/24 11:24:40;;;;;;;;;;;;;;;10.09;nan;101223.31;5080356;28;19920;-34
2022/11/24 11:27:21;;;;;;;;;;;;;;;10.03;nan;101239.47;5078823;28;19922;-35
2022/11/24 11:29:47;;;;;;;;;;;;;;;9.90;nan;101227.94;5073241;28;19920;-34
2022/11/24 11:32:18;;;;;;;;;;;;;;;9.93;nan;101235.50;5076156;28;19971;-34
2022/11/24 11:34:43;;;;;;;;;;;;;;;9.97;nan;101233.19;5073459;28;20019;-35
2022/11/24 11:37:11;;;;;;;;;;;;;;;10.03;nan;101231.44;5075764;28;20028;-35
2022/11/24 11:39:52;;;;;;;;;;;;;;;10.06;nan;101236.34;5076381;28;20322;-34
2022/11/24 11:42:18;;;;;;;;;;;;;;;10.11;nan;101231.91;5072835;28;19982;-35
2022/11/24 11:45:04;;;;;;;;;;;;;;;10.16;nan;101231.19;5078501;28;19916;-34
2022/11/24 11:47:29;;;;;;;;;;;;;;;10.20;nan;101229.69;5071738;28;20389;-35
2022/11/24 11:49:55;;;;;;;;;;;;;;;10.15;nan;101229.56;5077984;28;19925;-34
2022/11/24 11:52:39;;;;;;;;;;;;;;;10.16;nan;101226.66;5075978;28;19920;-34
2022/11/24 11:55:43;;;;;;;;;;;;;;;10.17;nan;101241.69;5079846;28;19972;-36
2022/11/24 11:58:11;;;;;;;;;;;;;;;10.15;nan;101230.38;5003592;28;19948;-35
2022/11/24 12:00:39;;;;;;;;;;;;;;;10.17;nan;101232.84;5003847;28;19925;-34
2022/11/24 12:03:22;;;;;;;;;;;;;;;10.19;nan;101236.09;5044064;28;19920;-36
2022/11/24 12:06:00;;;;;;;;;;;;;;;10.18;nan;101234.47;5077010;28;19924;-35
2022/11/24 12:08:44;;;;;;;;;;;;;;;10.19;nan;101231.53;5074078;28;19922;-35
2022/11/24 12:11:16;;;;;;;;;;;;;;;10.22;nan;101230.28;5074083;28;19966;-35
2022/11/24 12:14:00;;;;;;;;;;;;;;;10.24;nan;101233.56;5072853;28;19962;-35
2022/11/24 12:16:29;;;;;;;;;;;;;;;10.24;nan;101230.91;5076172;28;20011;-35
2022/11/24 12:18:54;;;;;;;;;;;;;;;10.27;nan;101243.81;5075501;28;19916;-35
2022/11/24 12:21:43;;;;;;;;;;;;;;;10.31;nan;101236.13;5073127;28;19989;-35
2022/11/24 12:24:11;;;;;;;;;;;;;;;10.29;nan;101231.81;5059185;28;19938;-35
2022/11/24 12:26:43;;;;;;;;;;;;;;;10.31;nan;101231.59;5073752;28;19924;-35
2022/11/24 12:29:11;;;;;;;;;;;;;;;10.34;nan;101231.09;5073645;28;19924;-36
2022/11/24 12:31:43;;;;;;;;;;;;;;;10.37;nan;101227.94;5079861;28;19924;-34
2022/11/24 12:34:21;;;;;;;;;;;;;;;10.42;nan;101238.81;5078450;28;20272;-36
2022/11/24 12:37:25;;;;;;;;;;;;;;;10.44;nan;101227.84;5070430;28;19920;-35
2022/11/24 12:39:50;;;;;;;;;;;;;;;10.45;nan;101243.69;4980933;28;19921;-35
2022/11/24 12:42:34;;;;;;;;;;;;;;;10.50;nan;101242.97;4981789;28;20305;-35
2022/11/24 12:45:08;;;;;;;;;;;;;;;10.54;nan;101252.97;5035768;28;19955;-34
2022/11/24 12:47:42;;;;;;;;;;;;;;;10.56;nan;101253.56;5074303;28;20297;-34
2022/11/24 12:50:28;;;;;;;;;;;;;;;10.54;nan;101258.34;5070627;28;19960;-36
2022/11/24 12:53:12;;;;;;;;;;;;;;;10.50;nan;101254.50;5074459;28;19943;-36
2022/11/24 12:55:39;;;;;;;;;;;;;;;10.45;nan;101254.41;5078752;28;19920;-34
2022/11/24 12:58:10;;;;;;;;;;;;;;;10.44;nan;101255.44;5070473;28;19916;-36
2022/11/24 13:00:44;;;;;;;;;;;;;;;10.46;nan;101257.91;5070875;28;19920;-34
2022/11/24 13:03:29;;;;;;;;;;;;;;;10.48;nan;101255.78;5079161;28;19924;-36
2022/11/24 13:06:21;;;;;;;;;;;;;;;10.50;nan;101267.91;5072148;28;19927;-35
2022/11/24 13:08:47;;;;;;;;;;;;;;;10.52;nan;101271.16;5064796;28;20026;-34
2022/11/24 13:11:21;;;;;;;;;;;;;;;10.55;nan;101272.53;5076224;28;20012;-35
2022/11/24 13:13:58;;;;;;;;;;;;;;;10.52;nan;101267.66;5075536;28;19928;-35
2022/11/24 13:16:25;;;;;;;;;;;;;;;10.51;nan;101266.03;5077180;28;19924;-35